Time;durP1;ratioP1;P1;durP2;ratioP2;P2;SDS_P1;SDS_P2;PMS_P1;PMS_P2;Temp;Humidity;BMP_temperature;BMP_pressure;BME280_temperature;BME280_humidity;BME280_pressure;Samples;Min_cycle;Max_cycle;Signal;HPM_P1;HPM_P2
2022/06/06 00:00:00;;;;;;;1999.90;999.90;;;19.10;99.90;;;;;;5033524;28;20509;-70
2022/06/06 00:02:27;;;;;;;1999.90;999.90;;;19.10;99.90;;;;;;5035348;28;20490;-71
2022/06/06 00:04:54;;;;;;;1999.90;999.90;;;19.10;99.90;;;;;;5033475;28;20460;-70
2022/06/06 00:07:22;;;;;;;1999.90;999.90;;;19.10;99.90;;;;;;5035563;28;20488;-70
2022/06/06 00:09:49;;;;;;;1999.90;999.90;;;19.00;99.90;;;;;;5035255;28;20466;-71
2022/06/06 00:12:16;;;;;;;1999.90;999.90;;;18.90;99.90;;;;;;5033443;28;21133;-70
2022/06/06 00:14:43;;;;;;;1999.90;999.90;;;18.90;99.90;;;;;;5031809;28;20477;-70
2022/06/06 00:17:10;;;;;;;1999.90;999.90;;;18.80;99.90;;;;;;5033800;28;20459;-71
2022/06/06 00:19:37;;;;;;;1999.90;999.90;;;18.80;99.90;;;;;;5031723;28;20486;-69
2022/06/06 00:22:03;;;;;;;1999.90;999.90;;;18.80;99.90;;;;;;5032584;28;20888;-71
2022/06/06 00:24:32;;;;;;;1999.90;999.90;;;18.80;99.90;;;;;;5035181;28;20952;-71
2022/06/06 00:26:59;;;;;;;1999.90;999.90;;;18.80;99.90;;;;;;5034533;28;20573;-71
2022/06/06 00:29:27;;;;;;;1999.90;999.90;;;18.90;99.90;;;;;;5037426;28;21061;-71
2022/06/06 00:34:49;;;;;;;1999.90;999.90;;;18.80;99.90;;;;;;5032146;28;20516;-70
2022/06/06 00:37:21;;;;;;;1999.90;999.90;;;18.80;99.90;;;;;;5033420;28;20517;-71
2022/06/06 00:39:49;;;;;;;1999.90;999.90;;;18.80;99.90;;;;;;5034904;28;20909;-71
2022/06/06 00:42:21;;;;;;;1999.90;999.90;;;18.60;99.90;;;;;;5035845;28;20467;-71
2022/06/06 00:44:48;;;;;;;1999.90;999.90;;;18.60;99.90;;;;;;5036968;28;21036;-70
2022/06/06 00:47:21;;;;;;;1999.90;999.90;;;18.70;99.90;;;;;;5034626;28;20479;-71
2022/06/06 00:49:52;;;;;;;1999.90;999.90;;;18.70;99.90;;;;;;5027103;28;20475;-71
2022/06/06 00:52:23;;;;;;;1999.90;999.90;;;18.70;99.90;;;;;;5036292;28;20529;-71
2022/06/06 00:54:54;;;;;;;1999.90;999.90;;;18.70;99.90;;;;;;5037195;28;20512;-71
2022/06/06 00:57:26;;;;;;;1999.90;999.90;;;18.70;99.90;;;;;;5034452;28;20467;-71
2022/06/06 00:59:54;;;;;;;1999.90;999.90;;;18.70;99.90;;;;;;5032117;28;20455;-71
2022/06/06 01:02:21;;;;;;;1999.90;999.90;;;18.70;99.90;;;;;;5037975;28;20463;-71
2022/06/06 01:04:48;;;;;;;1999.90;999.90;;;18.70;99.90;;;;;;5036027;28;20466;-71
2022/06/06 01:07:15;;;;;;;1999.90;999.90;;;18.70;99.90;;;;;;5029955;28;20493;-71
2022/06/06 01:09:43;;;;;;;1999.90;999.90;;;18.60;99.90;;;;;;5034074;28;20543;-69
2022/06/06 01:12:15;;;;;;;1999.90;999.90;;;18.60;99.90;;;;;;5028047;28;20495;-71
2022/06/06 01:14:47;;;;;;;1999.90;999.90;;;18.50;99.90;;;;;;5030160;28;20462;-70
2022/06/06 01:17:25;;;;;;;1999.90;999.90;;;18.50;99.90;;;;;;5031969;28;20467;-70
2022/06/06 01:20:09;;;;;;;1999.90;999.90;;;18.30;99.90;;;;;;5031505;28;20458;-71
2022/06/06 01:23:07;;;;;;;1999.90;999.90;;;18.20;99.90;;;;;;5034952;28;20466;-69
2022/06/06 01:26:04;;;;;;;1999.90;999.90;;;18.20;99.90;;;;;;5033718;28;20627;-71
2022/06/06 01:28:52;;;;;;;1999.90;999.90;;;18.20;99.90;;;;;;5036630;28;20482;-71
2022/06/06 01:31:23;;;;;;;1999.90;999.90;;;18.10;99.90;;;;;;5034487;28;20509;-71
2022/06/06 01:33:55;;;;;;;1999.90;999.90;;;18.00;99.90;;;;;;5032980;28;20490;-71
2022/06/06 01:36:24;;;;;;;1999.90;999.90;;;18.00;99.90;;;;;;5036507;28;20455;-71
2022/06/06 01:38:51;;;;;;;1999.90;999.90;;;17.90;99.90;;;;;;5035468;28;20482;-71
2022/06/06 01:41:25;;;;;;;1999.90;999.90;;;17.90;99.90;;;;;;5033333;28;20580;-71
2022/06/06 01:43:58;;;;;;;1999.90;999.90;;;17.90;99.90;;;;;;5035484;28;20527;-71
2022/06/06 01:46:31;;;;;;;1999.90;999.90;;;17.80;99.90;;;;;;5034159;28;20483;-71
2022/06/06 01:48:59;;;;;;;1999.90;999.90;;;17.80;99.90;;;;;;5031548;28;20572;-71
2022/06/06 01:51:28;;;;;;;1999.90;999.90;;;17.70;99.90;;;;;;5031426;28;20509;-72
2022/06/06 01:53:55;;;;;;;1999.90;999.90;;;17.70;99.90;;;;;;5027609;28;20490;-71
2022/06/06 01:56:26;;;;;;;1999.90;999.90;;;17.60;99.90;;;;;;5033689;28;20451;-70
2022/06/06 01:58:55;;;;;;;1999.90;999.90;;;17.60;99.90;;;;;;5031728;28;20539;-70
2022/06/06 02:01:21;;;;;;;1999.90;999.90;;;17.60;99.90;;;;;;5029409;28;20518;-71
2022/06/06 02:03:48;;;;;;;1999.90;999.90;;;17.60;99.90;;;;;;5032972;28;20461;-71
2022/06/06 02:06:15;;;;;;;1999.90;999.90;;;17.60;99.90;;;;;;5033542;28;20545;-71
2022/06/06 02:08:42;;;;;;;1999.90;999.90;;;17.60;99.90;;;;;;5035944;28;20536;-70
2022/06/06 02:11:09;;;;;;;1999.90;999.90;;;17.60;99.90;;;;;;5028753;28;20518;-71
2022/06/06 02:13:37;;;;;;;1999.90;999.90;;;17.50;99.90;;;;;;5037364;28;20543;-68
2022/06/06 02:16:05;;;;;;;1999.90;999.90;;;17.40;99.90;;;;;;5033482;28;20558;-68
2022/06/06 02:18:32;;;;;;;1999.90;999.90;;;17.40;99.90;;;;;;5032441;28;20485;-71
2022/06/06 02:21:01;;;;;;;1999.90;999.90;;;17.40;99.90;;;;;;5041135;28;20930;-71
2022/06/06 02:23:28;;;;;;;1999.90;999.90;;;17.40;99.90;;;;;;5040929;28;20495;-70
2022/06/06 02:25:54;;;;;;;1999.90;999.90;;;17.50;99.90;;;;;;5029691;28;20466;-71
2022/06/06 02:28:21;;;;;;;1999.90;999.90;;;17.50;99.90;;;;;;5033351;28;20487;-70
2022/06/06 02:30:48;;;;;;;1999.90;999.90;;;17.50;99.90;;;;;;5030528;28;20465;-71
2022/06/06 02:33:16;;;;;;;1999.90;999.90;;;17.50;99.90;;;;;;5032184;28;20509;-71
2022/06/06 02:35:44;;;;;;;1999.90;999.90;;;17.50;99.90;;;;;;5033970;28;20462;-71
2022/06/06 02:38:12;;;;;;;1999.90;999.90;;;17.40;99.90;;;;;;5032807;28;20540;-71
2022/06/06 02:40:41;;;;;;;1999.90;999.90;;;17.40;99.90;;;;;;5030015;28;20462;-70
2022/06/06 02:43:07;;;;;;;1999.90;999.90;;;17.30;99.90;;;;;;5025092;28;21329;-71
2022/06/06 02:45:34;;;;;;;1999.90;999.90;;;17.30;99.90;;;;;;5037002;28;20532;-71
2022/06/06 02:48:01;;;;;;;1999.90;999.90;;;17.30;99.90;;;;;;5030537;28;20495;-71
2022/06/06 02:50:32;;;;;;;1999.90;999.90;;;17.20;99.90;;;;;;5034919;28;21109;-71
2022/06/06 02:52:59;;;;;;;1999.90;999.90;;;17.20;99.90;;;;;;5032289;28;20526;-71
2022/06/06 02:55:26;;;;;;;1999.90;999.90;;;17.20;99.90;;;;;;5036162;28;21069;-71
2022/06/06 02:57:54;;;;;;;1999.90;999.90;;;17.20;99.90;;;;;;5033764;28;20486;-71
2022/06/06 03:00:23;;;;;;;1999.90;999.90;;;17.20;99.90;;;;;;5033007;28;20494;-71
2022/06/06 03:02:49;;;;;;;1999.90;999.90;;;17.20;99.90;;;;;;5031316;28;20462;-71
2022/06/06 03:05:17;;;;;;;1999.90;999.90;;;17.20;99.90;;;;;;5033381;28;20504;-71
2022/06/06 03:07:57;;;;;;;1999.90;999.90;;;17.20;99.90;;;;;;5032723;28;21024;-71
2022/06/06 03:10:33;;;;;;;1999.90;999.90;;;17.30;99.90;;;;;;5035400;28;20455;-71
2022/06/06 03:13:14;;;;;;;1999.90;999.90;;;17.30;99.90;;;;;;5033558;28;20505;-71
2022/06/06 03:21:45;;;;;;;1999.90;999.90;;;17.20;99.90;;;;;;5039894;28;20457;-71
2022/06/06 03:24:26;;;;;;;1999.90;999.90;;;17.20;99.90;;;;;;5032287;28;20458;-71
2022/06/06 03:27:08;;;;;;;1999.90;999.90;;;17.20;99.90;;;;;;5035177;28;20478;-71
2022/06/06 03:29:47;;;;;;;1999.90;999.90;;;17.20;99.90;;;;;;5039499;28;20485;-71
2022/06/06 03:32:26;;;;;;;1999.90;999.90;;;17.30;99.90;;;;;;5034905;28;20459;-71
2022/06/06 03:35:04;;;;;;;1999.90;999.90;;;17.30;99.90;;;;;;5030932;28;21154;-71
2022/06/06 03:37:37;;;;;;;1999.90;999.90;;;17.30;99.90;;;;;;5037744;28;20460;-70
2022/06/06 03:40:13;;;;;;;1999.90;999.90;;;17.20;99.90;;;;;;5034245;28;20819;-71
2022/06/06 03:42:49;;;;;;;1999.90;999.90;;;17.20;99.90;;;;;;5033997;28;20933;-70
2022/06/06 03:45:22;;;;;;;1999.90;999.90;;;17.30;99.90;;;;;;5030959;28;20516;-71
2022/06/06 03:48:01;;;;;;;1999.90;999.90;;;17.40;99.90;;;;;;5033436;28;20857;-71
2022/06/06 03:50:36;;;;;;;1999.90;999.90;;;17.40;99.90;;;;;;5037776;28;20451;-71
2022/06/06 03:53:08;;;;;;;1999.90;999.90;;;17.30;99.90;;;;;;5034157;28;20506;-71
2022/06/06 03:55:48;;;;;;;1999.90;999.90;;;17.30;99.90;;;;;;5036810;28;20497;-71
2022/06/06 03:58:18;;;;;;;1999.90;999.90;;;17.40;99.90;;;;;;5031954;28;20479;-71
2022/06/06 04:00:46;;;;;;;1999.90;999.90;;;17.40;99.90;;;;;;5034827;28;20983;-71
2022/06/06 04:03:15;;;;;;;1999.90;999.90;;;17.50;99.90;;;;;;5034200;28;20491;-71
2022/06/06 04:05:42;;;;;;;1999.90;999.90;;;17.50;99.90;;;;;;5039844;28;20498;-70
2022/06/06 04:08:09;;;;;;;1999.90;999.90;;;17.50;99.90;;;;;;5033136;28;20495;-71
2022/06/06 04:10:49;;;;;;;1999.90;999.90;;;17.60;99.90;;;;;;5036458;28;20462;-71
2022/06/06 04:13:31;;;;;;;1999.90;999.90;;;17.50;99.90;;;;;;5038415;28;20463;-71
2022/06/06 04:16:04;;;;;;;1999.90;999.90;;;17.40;99.90;;;;;;5038101;28;20472;-71
2022/06/06 04:18:41;;;;;;;1999.90;999.90;;;17.50;99.90;;;;;;5036791;28;20478;-71
2022/06/06 04:21:18;;;;;;;1999.90;999.90;;;17.50;99.90;;;;;;5033811;28;20512;-71
2022/06/06 04:24:03;;;;;;;1999.90;999.90;;;17.70;99.90;;;;;;5034281;28;20462;-71
2022/06/06 04:26:46;;;;;;;1999.90;999.90;;;17.80;99.90;;;;;;5033254;28;20459;-71
2022/06/06 04:29:22;;;;;;;1999.90;999.90;;;17.90;99.90;;;;;;5034748;28;20549;-70
2022/06/06 04:31:56;;;;;;;1999.90;999.90;;;18.20;99.90;;;;;;5037640;28;20512;-71
2022/06/06 04:34:33;;;;;;;1999.90;999.90;;;18.70;99.90;;;;;;5034270;28;21037;-71
2022/06/06 04:37:08;;;;;;;1999.90;999.90;;;18.90;99.90;;;;;;5035918;28;20458;-71
2022/06/06 04:39:46;;;;;;;1999.90;999.90;;;19.40;99.90;;;;;;5038857;28;20493;-71
2022/06/06 04:42:24;;;;;;;1999.90;999.90;;;19.90;99.90;;;;;;5034184;28;20454;-69
2022/06/06 04:44:58;;;;;;;1999.90;999.90;;;20.50;99.90;;;;;;5036412;28;20953;-68
2022/06/06 04:47:32;;;;;;;1999.90;999.90;;;21.00;99.90;;;;;;5035000;28;20474;-69
2022/06/06 04:50:02;;;;;;;1999.90;999.90;;;21.10;99.90;;;;;;5035083;28;20460;-71
2022/06/06 04:52:31;;;;;;;1999.90;999.90;;;20.70;99.90;;;;;;5037183;28;20467;-71
2022/06/06 04:54:58;;;;;;;1999.90;999.90;;;20.60;99.90;;;;;;5036713;28;20462;-73
2022/06/06 04:57:27;;;;;;;1999.90;999.90;;;20.50;99.90;;;;;;5037637;28;20533;-71
2022/06/06 04:59:57;;;;;;;1999.90;999.90;;;20.40;99.90;;;;;;5034073;28;20466;-71
2022/06/06 05:02:25;;;;;;;1999.90;999.90;;;20.00;99.90;;;;;;5036461;28;20460;-71
2022/06/06 05:04:51;;;;;;;1999.90;999.90;;;20.10;99.90;;;;;;5034797;28;20511;-71
2022/06/06 05:07:35;;;;;;;1999.90;999.90;;;20.00;99.90;;;;;;5037289;28;20570;-71
2022/06/06 05:10:26;;;;;;;1999.90;999.90;;;19.90;99.90;;;;;;5032681;28;20463;-71
2022/06/06 05:13:16;;;;;;;1999.90;999.90;;;19.90;99.90;;;;;;5032011;28;20878;-71
2022/06/06 05:15:55;;;;;;;1999.90;999.90;;;20.00;99.90;;;;;;5033785;28;20884;-70
2022/06/06 05:18:50;;;;;;;1999.90;999.90;;;20.00;99.90;;;;;;5035657;28;20530;-71
2022/06/06 05:21:33;;;;;;;1999.90;999.90;;;19.90;99.90;;;;;;5028994;28;20467;-71
2022/06/06 05:24:36;;;;;;;1999.90;999.90;;;19.90;99.90;;;;;;5034027;28;20529;-71
2022/06/06 05:27:14;;;;;;;1999.90;999.90;;;20.10;99.90;;;;;;5032999;28;20463;-71
2022/06/06 05:30:06;;;;;;;1999.90;999.90;;;20.30;99.90;;;;;;5029203;28;20532;-70
2022/06/06 05:32:58;;;;;;;1999.90;999.90;;;20.30;99.90;;;;;;5039032;28;20462;-70
2022/06/06 05:35:45;;;;;;;1999.90;999.90;;;20.10;99.90;;;;;;5036818;28;20529;-71
2022/06/06 05:38:25;;;;;;;1999.90;999.90;;;19.80;99.90;;;;;;5033355;28;20474;-71
2022/06/06 05:41:00;;;;;;;1999.90;999.90;;;19.80;99.90;;;;;;5033322;28;20957;-71
2022/06/06 05:43:40;;;;;;;1999.90;999.90;;;19.90;99.90;;;;;;5032146;28;20464;-70
2022/06/06 05:46:21;;;;;;;1999.90;999.90;;;20.20;99.90;;;;;;5033663;28;20468;-69
2022/06/06 05:48:54;;;;;;;1999.90;999.90;;;20.50;99.90;;;;;;5055802;22;20493;31
2022/06/06 05:51:35;;;;;;;1999.90;999.90;;;20.90;99.90;;;;;;5050197;28;20475;-69
2022/06/06 05:54:21;;;;;;;1999.90;999.90;;;21.20;99.90;;;;;;5053470;28;20462;-69
2022/06/06 05:57:12;;;;;;;1999.90;999.90;;;21.00;99.90;;;;;;5048677;28;20512;-69
2022/06/06 05:59:50;;;;;;;1999.90;999.90;;;21.20;99.90;;;;;;5047860;28;20478;-67
2022/06/06 06:02:59;;;;;;;1999.90;999.90;;;21.40;99.90;;;;;;5047287;28;20462;-66
2022/06/06 06:05:37;;;;;;;1999.90;999.90;;;21.50;99.90;;;;;;5044417;28;20468;-67
2022/06/06 06:08:21;;;;;;;1999.90;999.90;;;21.50;99.90;;;;;;5046239;28;20470;-68
2022/06/06 06:10:55;;;;;;;1999.90;999.90;;;21.00;99.90;;;;;;5043740;28;20482;-67
2022/06/06 06:13:37;;;;;;;1999.90;999.90;;;21.40;99.90;;;;;;5047104;28;20943;-69
2022/06/06 06:16:07;;;;;;;1999.90;999.90;;;21.30;99.90;;;;;;5046656;28;20492;-67
2022/06/06 06:18:41;;;;;;;1999.90;999.90;;;20.90;99.90;;;;;;5047941;28;20532;-67
2022/06/06 06:21:10;;;;;;;1999.90;999.90;;;20.70;99.90;;;;;;5050982;28;20838;-69
2022/06/06 06:23:48;;;;;;;1999.90;999.90;;;20.80;99.90;;;;;;5050064;28;21087;-66
2022/06/06 06:26:16;;;;;;;1999.90;999.90;;;20.60;99.90;;;;;;5042269;28;21130;-68
2022/06/06 06:28:46;;;;;;;1999.90;999.90;;;20.80;99.90;;;;;;5045577;28;20486;-68
2022/06/06 06:31:32;;;;;;;1999.90;999.90;;;21.10;99.90;;;;;;5045447;28;20454;-69
2022/06/06 06:34:14;;;;;;;1999.90;999.90;;;21.70;99.90;;;;;;5046282;28;20466;-67
2022/06/06 06:36:45;;;;;;;1999.90;999.90;;;21.90;99.90;;;;;;5044084;28;21023;-68
2022/06/06 06:39:44;;;;;;;1999.90;999.90;;;21.90;99.90;;;;;;5043602;28;20545;-70
2022/06/06 06:42:23;;;;;;;1999.90;999.90;;;21.90;99.90;;;;;;5045045;28;20459;-68
2022/06/06 06:44:55;;;;;;;1999.90;999.90;;;22.20;99.90;;;;;;5046980;28;20462;-68
2022/06/06 06:47:28;;;;;;;1999.90;999.90;;;22.50;99.90;;;;;;5051823;28;20469;-68
2022/06/06 06:50:06;;;;;;;1999.90;999.90;;;22.80;99.90;;;;;;5049615;28;20497;-69
2022/06/06 06:52:49;;;;;;;1999.90;999.90;;;22.80;99.90;;;;;;5050553;28;20839;-68
2022/06/06 06:55:23;;;;;;;1999.90;999.90;;;22.80;99.90;;;;;;5050816;28;20454;-69
2022/06/06 06:58:01;;;;;;;1999.90;999.90;;;22.80;99.90;;;;;;5049952;28;20466;-69
2022/06/06 07:00:33;;;;;;;1999.90;999.90;;;22.80;99.90;;;;;;5051008;28;20551;-69
2022/06/06 07:09:03;;;;;;;1999.90;999.90;;;23.40;99.90;;;;;;5048164;28;20477;-68
2022/06/06 07:11:39;;;;;;;1999.90;999.90;;;23.40;99.90;;;;;;5049747;28;20492;-68
2022/06/06 07:14:18;;;;;;;1999.90;999.90;;;23.40;99.90;;;;;;5044947;28;20532;-66
2022/06/06 07:16:46;;;;;;;1999.90;999.90;;;23.60;99.90;;;;;;5047238;28;20520;-67
2022/06/06 07:19:16;;;;;;;1999.90;999.90;;;23.80;99.90;;;;;;5052881;28;20473;-67
2022/06/06 07:21:46;;;;;;;1999.90;999.90;;;23.60;99.90;;;;;;5050102;28;20467;-65
2022/06/06 07:24:17;;;;;;;1999.90;999.90;;;23.70;99.90;;;;;;5051779;28;20523;-66
2022/06/06 07:26:45;;;;;;;1999.90;999.90;;;23.90;99.90;;;;;;5049547;28;20464;-65
2022/06/06 07:29:14;;;;;;;1999.90;999.90;;;23.90;99.90;;;;;;5046988;28;20553;-67
2022/06/06 07:31:52;;;;;;;1999.90;999.90;;;23.80;99.90;;;;;;5048109;28;20520;-65
2022/06/06 07:34:36;;;;;;;1999.90;999.90;;;23.70;99.90;;;;;;5049239;28;20969;-66
2022/06/06 07:37:16;;;;;;;1999.90;999.90;;;23.60;99.90;;;;;;5045798;28;20466;-67
2022/06/06 07:39:53;;;;;;;1999.90;999.90;;;23.80;99.90;;;;;;5043777;28;20470;-68
2022/06/06 07:42:52;;;;;;;1999.90;999.90;;;23.70;99.90;;;;;;5049430;28;20488;-69
2022/06/06 07:45:27;;;;;;;1999.90;999.90;;;23.20;99.90;;;;;;5042151;28;21151;-69
2022/06/06 07:48:17;;;;;;;1999.90;999.90;;;22.90;99.90;;;;;;5048066;28;20462;-69
2022/06/06 07:50:52;;;;;;;1999.90;999.90;;;22.40;99.90;;;;;;5046286;28;20486;-69
2022/06/06 07:53:31;;;;;;;1999.90;999.90;;;21.90;99.90;;;;;;5045125;28;20968;-68
2022/06/06 07:56:09;;;;;;;1999.90;999.90;;;21.80;99.90;;;;;;5046519;28;20464;-68
2022/06/06 07:58:42;;;;;;;1999.90;999.90;;;21.70;99.90;;;;;;5049480;28;20496;-68
2022/06/06 08:01:14;;;;;;;1999.90;999.90;;;21.80;99.90;;;;;;5044697;28;20555;-69
2022/06/06 08:03:49;;;;;;;1999.90;999.90;;;21.90;99.90;;;;;;5041188;28;21033;-65
2022/06/06 08:06:31;;;;;;;1999.90;999.90;;;22.30;99.90;;;;;;5046202;28;20512;-66
2022/06/06 08:09:11;;;;;;;1999.90;999.90;;;22.60;99.90;;;;;;5045433;28;20519;-68
2022/06/06 08:11:53;;;;;;;1999.90;999.90;;;23.10;99.90;;;;;;5045815;28;20462;-65
2022/06/06 08:14:31;;;;;;;1999.90;999.90;;;23.50;99.90;;;;;;5048210;28;20521;-67
2022/06/06 08:17:06;;;;;;;1999.90;999.90;;;23.80;99.90;;;;;;5047526;28;20524;-66
2022/06/06 08:19:54;;;;;;;1999.90;999.90;;;23.30;99.90;;;;;;5048613;28;20474;-66
2022/06/06 08:22:24;;;;;;;1999.90;999.90;;;23.40;99.90;;;;;;5047734;28;20454;-66
2022/06/06 08:24:54;;;;;;;1999.90;999.90;;;23.10;99.90;;;;;;5047436;28;20473;-68
2022/06/06 08:27:21;;;;;;;1999.90;999.90;;;22.80;99.90;;;;;;5046017;28;20462;-65
2022/06/06 08:29:49;;;;;;;1999.90;999.90;;;22.80;99.90;;;;;;5047411;28;20490;-68
2022/06/06 08:32:17;;;;;;;1999.90;999.90;;;23.00;99.90;;;;;;5046890;28;20462;-68
2022/06/06 08:34:44;;;;;;;1999.90;999.90;;;22.80;99.90;;;;;;5045015;28;20496;-68
2022/06/06 08:37:30;;;;;;;1999.90;999.90;;;23.20;99.90;;;;;;5049862;28;20459;-64
2022/06/06 08:40:15;;;;;;;1999.90;999.90;;;23.50;99.90;;;;;;5042464;28;20551;-68
2022/06/06 08:42:56;;;;;;;1999.90;999.90;;;23.60;99.70;;;;;;5045985;28;20461;-65
2022/06/06 08:45:43;;;;;;;1999.90;999.90;;;24.10;99.30;;;;;;5046866;28;21023;-68
2022/06/06 08:48:25;;;;;;;1999.90;999.90;;;23.80;98.10;;;;;;5050791;28;20462;-68
2022/06/06 08:51:03;;;;;;;1999.90;999.90;;;23.70;98.00;;;;;;5046062;28;20527;-67
2022/06/06 08:54:06;;;;;;;1999.90;999.90;;;23.80;97.70;;;;;;5050013;28;20538;-65
2022/06/06 08:57:02;;;;;;;1999.90;999.90;;;24.20;97.80;;;;;;5032884;28;20489;-67
2022/06/06 08:59:54;;;;;;;1999.90;999.90;;;24.20;97.40;;;;;;5032836;28;20521;-65
2022/06/06 09:02:54;;;;;;;1999.90;999.90;;;24.70;96.90;;;;;;5032685;28;20451;-67
2022/06/06 09:05:56;;;;;;;1999.90;999.90;;;24.70;97.10;;;;;;5041097;28;21042;-68
2022/06/06 09:08:57;;;;;;;1999.90;999.90;;;24.40;96.40;;;;;;5043235;28;20546;-67
2022/06/06 09:12:07;;;;;;;1999.90;999.90;;;24.10;96.90;;;;;;5041585;28;20532;-69
2022/06/06 09:15:07;;;;;;;1999.90;999.90;;;23.00;97.10;;;;;;5044980;28;20937;-69
2022/06/06 09:18:22;;;;;;;1999.90;999.90;;;22.20;98.40;;;;;;5045096;28;20459;-66
2022/06/06 09:21:02;;;;;;;1999.90;999.90;;;22.30;99.10;;;;;;5044739;28;21062;-69
2022/06/06 09:24:02;;;;;;;1999.90;999.90;;;22.20;99.50;;;;;;5045748;28;20462;-68
2022/06/06 09:26:37;;;;;;;1999.90;999.90;;;22.00;99.20;;;;;;5046866;28;20508;-71
2022/06/06 09:29:45;;;;;;;1999.90;999.90;;;22.20;99.50;;;;;;5044515;28;20481;-67
2022/06/06 09:32:45;;;;;;;1999.90;999.90;;;22.00;99.60;;;;;;5041232;28;20463;-69
2022/06/06 09:35:31;;;;;;;1999.90;999.90;;;22.20;99.90;;;;;;5051027;28;20926;-67
2022/06/06 09:38:11;;;;;;;1999.90;999.90;;;22.80;99.70;;;;;;5043801;28;20462;-67
2022/06/06 09:40:56;;;;;;;1999.90;999.90;;;23.20;98.50;;;;;;5046968;28;20490;-68
2022/06/06 09:43:34;;;;;;;1999.90;999.90;;;23.40;97.70;;;;;;5047019;28;20446;-68
2022/06/06 09:46:42;;;;;;;1999.90;999.90;;;23.60;97.50;;;;;;5044439;28;20458;-68
2022/06/06 09:49:44;;;;;;;1999.90;999.90;;;23.30;97.90;;;;;;5039796;28;20526;-67
2022/06/06 09:52:47;;;;;;;1999.90;999.90;;;23.50;98.30;;;;;;5044366;28;20472;-67
2022/06/06 09:59:03;;;;;;;1999.90;999.90;;;23.90;96.80;;;;;;5004054;28;20454;-65
2022/06/06 10:02:08;;;;;;;1999.90;999.90;;;24.30;97.10;;;;;;5042034;28;21297;-65
2022/06/06 10:05:23;;;;;;;1999.90;999.90;;;24.60;97.20;;;;;;5043240;28;20454;-63
2022/06/06 10:08:34;;;;;;;1999.90;999.90;;;24.60;96.70;;;;;;5042126;28;20515;-65
2022/06/06 10:11:26;;;;;;;1999.90;999.90;;;24.70;96.50;;;;;;5046692;28;20511;-65
2022/06/06 10:14:07;;;;;;;1999.90;999.90;;;25.00;95.90;;;;;;5045190;28;20470;-65
2022/06/06 10:16:57;;;;;;;1999.90;999.90;;;24.70;96.10;;;;;;5043396;28;20470;-65
2022/06/06 10:19:42;;;;;;;1999.90;999.90;;;24.70;96.10;;;;;;5044915;28;20512;-65
2022/06/06 10:22:49;;;;;;;1999.90;999.90;;;24.50;96.50;;;;;;5037480;28;20497;-65
2022/06/06 10:25:37;;;;;;;1999.90;999.90;;;23.80;97.20;;;;;;5041724;28;20466;-65
2022/06/06 10:28:17;;;;;;;1999.90;999.90;;;23.90;98.00;;;;;;5039476;28;20517;-66
2022/06/06 10:31:00;;;;;;;1999.90;999.90;;;24.10;97.50;;;;;;5039205;28;20490;-65
2022/06/06 10:34:09;;;;;;;1999.90;999.90;;;24.00;97.50;;;;;;5042013;28;20455;-65
2022/06/06 10:37:00;;;;;;;1999.90;999.90;;;24.60;97.10;;;;;;5008652;28;20529;-66
2022/06/06 10:39:54;;;;;;;1999.90;999.90;;;25.00;96.90;;;;;;5039281;28;20479;-67
2022/06/06 10:42:48;;;;;;;1999.90;999.90;;;24.70;96.00;;;;;;5038872;28;20458;-65
2022/06/06 10:45:23;;;;;;;1999.90;999.90;;;25.10;96.10;;;;;;5044725;28;20549;-66
2022/06/06 10:48:18;;;;;;;1999.90;999.90;;;25.20;95.70;;;;;;5043753;28;20458;-65
2022/06/06 10:54:23;;;;;;;1999.90;999.90;;;25.60;95.20;;;;;;5051496;28;20399;-65
2022/06/06 10:57:13;;;;;;;1999.90;999.90;;;25.80;94.40;;;;;;5041473;28;20993;-65
2022/06/06 11:00:06;;;;;;;1999.90;999.90;;;25.90;94.60;;;;;;5042479;28;20538;-69
2022/06/06 11:03:08;;;;;;;1999.90;999.90;;;26.20;94.60;;;;;;5046544;28;20462;-65
2022/06/06 11:06:14;;;;;;;1999.90;999.90;;;26.10;94.10;;;;;;5041588;28;20469;-63
2022/06/06 11:09:13;;;;;;;1999.90;999.90;;;25.70;93.90;;;;;;5045851;28;20517;-66
2022/06/06 11:12:02;;;;;;;1999.90;999.90;;;25.60;94.60;;;;;;5042093;28;20501;-65
2022/06/06 11:14:35;;;;;;;1999.90;999.90;;;25.70;93.20;;;;;;5046111;28;20488;-65
2022/06/06 11:17:26;;;;;;;1999.90;999.90;;;25.40;93.30;;;;;;5046256;28;20458;-69
2022/06/06 11:20:35;;;;;;;1999.90;999.90;;;24.90;93.00;;;;;;5042728;28;20474;-65
2022/06/06 11:23:09;;;;;;;1999.90;999.90;;;24.80;93.00;;;;;;5043439;28;20488;-64
2022/06/06 11:25:49;;;;;;;1999.90;999.90;;;25.10;92.80;;;;;;5045875;28;20501;-66
2022/06/06 11:28:45;;;;;;;1999.90;999.90;;;25.00;93.60;;;;;;5041576;28;20454;-65
2022/06/06 11:31:29;;;;;;;1999.90;999.90;;;25.00;92.80;;;;;;5046256;28;20523;-66
2022/06/06 11:34:38;;;;;;;1999.90;999.90;;;24.70;93.60;;;;;;5049800;28;20464;-66
2022/06/06 11:37:34;;;;;;;1999.90;999.90;;;24.70;93.20;;;;;;5052415;28;20457;-65
2022/06/06 11:40:36;;;;;;;1999.90;999.90;;;24.50;93.60;;;;;;5043529;28;20482;-66
2022/06/06 11:43:51;;;;;;;1999.90;999.90;;;24.60;92.50;;;;;;5046339;28;20503;-67
2022/06/06 11:47:06;;;;;;;1999.90;999.90;;;24.50;91.50;;;;;;5047376;28;20516;-68
2022/06/06 11:52:27;;;;;;;1999.90;999.90;;;23.70;91.50;;;;;;5088383;22;20498;-69
2022/06/06 11:55:17;;;;;;;1999.90;999.90;;;24.00;90.90;;;;;;5064475;28;20471;-70
2022/06/06 11:58:12;;;;;;;1999.90;999.90;;;24.10;90.60;;;;;;5066651;28;20514;-70
2022/06/06 12:00:52;;;;;;;1999.90;999.90;;;23.80;90.70;;;;;;5060055;28;20516;-70
2022/06/06 12:03:53;;;;;;;1999.90;999.90;;;23.80;91.20;;;;;;5048171;28;20458;-68
2022/06/06 12:06:50;;;;;;;1999.90;999.90;;;23.70;91.50;;;;;;5049244;28;20494;-69
2022/06/06 12:09:33;;;;;;;1999.90;999.90;;;23.60;92.10;;;;;;5047964;28;20862;-70
2022/06/06 12:12:19;;;;;;;1999.90;999.90;;;23.20;93.10;;;;;;5049489;28;20490;-70
2022/06/06 12:15:07;;;;;;;1999.90;999.90;;;22.90;94.00;;;;;;5049974;28;20481;-70
2022/06/06 12:17:52;;;;;;;1999.90;999.90;;;22.50;94.30;;;;;;5049203;28;20462;-70
2022/06/06 12:20:45;;;;;;;1999.90;999.90;;;22.20;94.70;;;;;;5048182;28;20478;-69
2022/06/06 12:23:18;;;;;;;1999.90;999.90;;;22.10;94.90;;;;;;5050046;28;20958;-70
2022/06/06 12:25:59;;;;;;;1999.90;999.90;;;22.10;94.90;;;;;;5049086;28;20460;-69
2022/06/06 12:29:20;;;;;;;1999.90;999.90;;;21.90;95.10;;;;;;5048710;28;20512;-69
2022/06/06 12:32:20;;;;;;;1999.90;999.90;;;22.10;94.60;;;;;;5049713;28;20489;-70
2022/06/06 12:34:54;;;;;;;1999.90;999.90;;;22.10;94.80;;;;;;5050180;28;20463;-69
2022/06/06 12:37:26;;;;;;;1999.90;999.90;;;21.70;95.60;;;;;;5047187;28;20453;-70
2022/06/06 12:40:03;;;;;;;1999.90;999.90;;;21.90;95.80;;;;;;5050247;28;20531;-70
2022/06/06 12:42:38;;;;;;;1999.90;999.90;;;22.10;95.70;;;;;;5049078;28;20531;-69
2022/06/06 12:45:24;;;;;;;1999.90;999.90;;;22.10;95.10;;;;;;5048959;28;20466;-69
2022/06/06 12:48:07;;;;;;;1999.90;999.90;;;22.10;94.60;;;;;;5049484;28;20752;-70
2022/06/06 12:50:51;;;;;;;1999.90;999.90;;;22.10;95.00;;;;;;5044498;28;20490;-70
2022/06/06 12:53:42;;;;;;;1999.90;999.90;;;22.10;95.40;;;;;;5045777;28;20458;-70
2022/06/06 12:56:21;;;;;;;1999.90;999.90;;;22.10;95.90;;;;;;5046068;28;20461;-68
2022/06/06 12:59:01;;;;;;;1999.90;999.90;;;22.10;96.10;;;;;;5042834;28;20536;-68
2022/06/06 13:01:45;;;;;;;1999.90;999.90;;;22.00;96.20;;;;;;5044536;28;20481;-69
2022/06/06 13:04:32;;;;;;;1999.90;999.90;;;22.00;96.30;;;;;;5040995;28;20902;-69
2022/06/06 13:07:17;;;;;;;1999.90;999.90;;;22.00;96.50;;;;;;5052492;28;20454;-70
2022/06/06 13:10:03;;;;;;;1999.90;999.90;;;21.90;97.00;;;;;;5052542;28;20531;-69
2022/06/06 13:12:49;;;;;;;1999.90;999.90;;;22.00;96.30;;;;;;5052893;28;20499;-69
2022/06/06 13:15:25;;;;;;;1999.90;999.90;;;22.10;96.60;;;;;;5052836;28;20484;-69
2022/06/06 13:18:03;;;;;;;1999.90;999.90;;;21.70;96.70;;;;;;5052953;28;20480;-68
2022/06/06 13:20:39;;;;;;;1999.90;999.90;;;21.70;97.00;;;;;;5051973;28;20520;-69
2022/06/06 13:23:32;;;;;;;1999.90;999.90;;;21.90;96.50;;;;;;5049163;28;20865;-69